Time;durP1;ratioP1;P1;durP2;ratioP2;P2;SDS_P1;SDS_P2;PMS_P1;PMS_P2;Temp;Humidity;BMP_temperature;BMP_pressure;BME280_temperature;BME280_humidity;BME280_pressure;Samples;Min_cycle;Max_cycle;Signal;HPM_P1;HPM_P2
2022/03/23 00:02:05;;;;;;;18.30;3.05;;;;;;;;;;5046865;28;20032;-45
2022/03/23 00:04:32;;;;;;;17.00;3.42;;;;;;;;;;5048985;28;20036;-46
2022/03/23 00:06:59;;;;;;;21.40;3.13;;;;;;;;;;5048358;28;20033;-41
2022/03/23 00:09:27;;;;;;;16.35;3.58;;;;;;;;;;5048066;28;20025;-43
2022/03/23 00:11:54;;;;;;;15.68;3.25;;;;;;;;;;5040547;28;20746;-44
2022/03/23 00:14:21;;;;;;;17.52;3.05;;;;;;;;;;5047455;28;20044;-45
2022/03/23 00:16:48;;;;;;;17.92;3.15;;;;;;;;;;5051106;28;20031;-44
2022/03/23 00:19:16;;;;;;;20.65;3.10;;;;;;;;;;5057297;28;20029;-45
2022/03/23 00:21:43;;;;;;;20.05;3.15;;;;;;;;;;5060699;28;20033;-41
2022/03/23 00:24:10;;;;;;;19.73;3.17;;;;;;;;;;5050972;28;20367;-48
2022/03/23 00:26:38;;;;;;;31.30;3.50;;;;;;;;;;5061199;28;20486;-46
2022/03/23 00:29:05;;;;;;;20.15;3.83;;;;;;;;;;5062425;28;20036;-42
2022/03/23 00:31:32;;;;;;;17.08;3.17;;;;;;;;;;5062152;28;20119;-48
2022/03/23 00:34:06;;;;;;;18.45;3.50;;;;;;;;;;5062257;28;20025;-52
2022/03/23 00:36:36;;;;;;;23.42;4.68;;;;;;;;;;5059185;28;20033;-50
2022/03/23 00:39:06;;;;;;;24.90;4.40;;;;;;;;;;5060314;28;20040;-50
2022/03/23 00:41:33;;;;;;;31.15;13.05;;;;;;;;;;5061392;28;20037;-50
2022/03/23 00:44:00;;;;;;;51.17;23.45;;;;;;;;;;5059702;28;20038;-51
2022/03/23 00:46:27;;;;;;;56.15;29.35;;;;;;;;;;5063185;28;20070;-51
2022/03/23 00:48:54;;;;;;;87.15;39.72;;;;;;;;;;5060961;28;20089;-51
2022/03/23 00:51:21;;;;;;;81.18;35.20;;;;;;;;;;5062425;28;20085;-55
2022/03/23 00:53:49;;;;;;;74.15;35.65;;;;;;;;;;5060829;28;20025;-50
2022/03/23 00:56:16;;;;;;;61.65;30.15;;;;;;;;;;5060263;28;20381;-46
2022/03/23 00:58:44;;;;;;;75.68;31.02;;;;;;;;;;5063062;28;20481;-46
2022/03/23 01:01:13;;;;;;;84.15;39.05;;;;;;;;;;5072661;28;20493;-48
2022/03/23 01:03:40;;;;;;;73.88;33.67;;;;;;;;;;5069074;28;20035;-46
2022/03/23 01:06:08;;;;;;;76.90;37.75;;;;;;;;;;5073419;28;20040;-47
2022/03/23 01:08:35;;;;;;;74.05;36.03;;;;;;;;;;5073039;28;20489;-47
2022/03/23 01:11:03;;;;;;;83.28;39.88;;;;;;;;;;5067615;28;20033;-49
2022/03/23 01:13:30;;;;;;;68.32;36.05;;;;;;;;;;5048844;28;20047;-48
2022/03/23 01:15:57;;;;;;;69.53;33.78;;;;;;;;;;5072549;28;20489;-47
2022/03/23 01:18:24;;;;;;;72.80;34.53;;;;;;;;;;5073005;28;20513;-47
2022/03/23 01:20:51;;;;;;;67.38;35.55;;;;;;;;;;5044002;28;20049;-49
2022/03/23 01:23:17;;;;;;;91.75;40.05;;;;;;;;;;5053015;28;20044;-49
2022/03/23 01:25:45;;;;;;;104.05;41.97;;;;;;;;;;5052901;28;20027;-48
2022/03/23 01:28:12;;;;;;;117.60;46.13;;;;;;;;;;5060624;28;20039;-47
2022/03/23 01:30:39;;;;;;;120.75;48.33;;;;;;;;;;5072076;28;20036;-48
2022/03/23 01:33:06;;;;;;;148.35;51.53;;;;;;;;;;5073512;28;20040;-48
2022/03/23 01:35:33;;;;;;;133.55;49.88;;;;;;;;;;5072658;28;20044;-47
2022/03/23 01:38:00;;;;;;;126.38;50.50;;;;;;;;;;5072669;28;20389;-49
2022/03/23 01:40:28;;;;;;;114.35;49.47;;;;;;;;;;5058690;28;20033;-48
2022/03/23 01:42:55;;;;;;;140.77;51.83;;;;;;;;;;5053450;28;20028;-47
2022/03/23 01:45:22;;;;;;;144.63;53.95;;;;;;;;;;5051886;28;20040;-46
2022/03/23 01:47:49;;;;;;;111.20;46.35;;;;;;;;;;5053022;28;20035;-46
2022/03/23 01:50:16;;;;;;;106.45;43.38;;;;;;;;;;5052901;28;20045;-50
2022/03/23 01:52:43;;;;;;;112.53;44.30;;;;;;;;;;5018118;28;20064;-46
2022/03/23 01:55:13;;;;;;;106.82;43.15;;;;;;;;;;5058091;28;20083;-46
2022/03/23 01:57:43;;;;;;;111.45;43.05;;;;;;;;;;5059719;28;20091;-46
2022/03/23 02:00:11;;;;;;;114.07;44.65;;;;;;;;;;5060361;28;20075;-49
2022/03/23 02:02:38;;;;;;;104.97;44.45;;;;;;;;;;5059449;28;20036;-47
2022/03/23 02:05:06;;;;;;;102.80;43.75;;;;;;;;;;5062577;28;20037;-46
2022/03/23 02:07:33;;;;;;;94.38;40.78;;;;;;;;;;5056122;28;20033;-48
2022/03/23 02:10:00;;;;;;;92.22;36.47;;;;;;;;;;5059344;28;20036;-48
2022/03/23 02:12:30;;;;;;;87.78;37.05;;;;;;;;;;5056706;28;20033;-62
2022/03/23 02:15:01;;;;;;;87.88;36.95;;;;;;;;;;5051291;28;20108;-61
2022/03/23 02:17:28;;;;;;;76.32;34.30;;;;;;;;;;5050881;28;20040;-60
2022/03/23 02:19:55;;;;;;;83.13;33.97;;;;;;;;;;5051111;28;20033;-62
2022/03/23 02:22:22;;;;;;;80.40;33.10;;;;;;;;;;5059964;28;20025;-66
2022/03/23 02:24:49;;;;;;;73.65;31.90;;;;;;;;;;5058816;28;20437;-61
2022/03/23 02:27:18;;;;;;;80.15;32.08;;;;;;;;;;5055205;28;20473;-61
2022/03/23 02:29:45;;;;;;;77.63;31.45;;;;;;;;;;5060129;28;20036;-56
2022/03/23 02:32:13;;;;;;;70.72;30.48;;;;;;;;;;5058919;28;20545;-57
2022/03/23 02:34:40;;;;;;;74.50;30.90;;;;;;;;;;5051406;28;20037;-60
2022/03/23 02:37:07;;;;;;;62.15;27.52;;;;;;;;;;5033454;28;20037;-55
2022/03/23 02:39:34;;;;;;;69.05;27.45;;;;;;;;;;5032841;28;20044;-50
2022/03/23 02:42:02;;;;;;;68.82;27.88;;;;;;;;;;5039132;28;20713;-53
2022/03/23 02:44:30;;;;;;;69.65;27.98;;;;;;;;;;5068655;28;20044;-50
2022/03/23 02:46:57;;;;;;;62.85;27.00;;;;;;;;;;5052437;28;20068;-49
2022/03/23 02:49:24;;;;;;;66.10;27.58;;;;;;;;;;5071935;28;20044;-51
2022/03/23 02:51:51;;;;;;;64.65;25.85;;;;;;;;;;5064889;28;20028;-49
2022/03/23 03:03:23;;;;;;;55.63;25.10;;;;;;;;;;4998033;28;20496;-48
2022/03/23 03:05:50;;;;;;;52.80;24.02;;;;;;;;;;5071399;28;20401;-48
2022/03/23 03:11:03;;;;;;;52.45;23.77;;;;;;;;;;5063054;28;20039;-50
2022/03/23 03:13:30;;;;;;;49.30;23.88;;;;;;;;;;5040960;28;20056;-47
2022/03/23 03:16:06;;;;;;;54.42;24.65;;;;;;;;;;5051699;28;20029;-47
2022/03/23 03:18:33;;;;;;;45.92;22.15;;;;;;;;;;5053380;28;20029;-48
2022/03/23 03:21:04;;;;;;;47.38;21.58;;;;;;;;;;5060887;28;20040;-47
2022/03/23 03:23:31;;;;;;;53.38;22.10;;;;;;;;;;5059890;28;20036;-48
2022/03/23 03:25:58;;;;;;;53.05;22.08;;;;;;;;;;5059463;28;20036;-49
2022/03/23 03:28:25;;;;;;;49.72;20.90;;;;;;;;;;5054193;28;20056;-46
2022/03/23 03:30:52;;;;;;;50.97;21.25;;;;;;;;;;5051873;28;20073;-47
2022/03/23 03:33:19;;;;;;;44.05;20.20;;;;;;;;;;5051432;28;20029;-46
2022/03/23 03:35:46;;;;;;;42.08;19.08;;;;;;;;;;5051693;28;20052;-48
2022/03/23 03:38:13;;;;;;;40.97;19.23;;;;;;;;;;5051920;28;20053;-45
2022/03/23 03:40:40;;;;;;;40.75;18.80;;;;;;;;;;5051647;28;20068;-47
2022/03/23 03:43:07;;;;;;;39.38;19.27;;;;;;;;;;5051395;28;20132;-50
2022/03/23 03:45:34;;;;;;;42.13;18.55;;;;;;;;;;5051764;28;20139;-48
2022/03/23 03:48:01;;;;;;;39.58;18.58;;;;;;;;;;5051521;28;20485;-48
2022/03/23 03:50:28;;;;;;;37.63;17.35;;;;;;;;;;5051328;28;20041;-50
2022/03/23 03:52:55;;;;;;;37.63;17.50;;;;;;;;;;5051306;28;20067;-48
2022/03/23 03:55:22;;;;;;;37.88;17.75;;;;;;;;;;5051703;28;20029;-48
2022/03/23 03:57:49;;;;;;;32.83;16.52;;;;;;;;;;5050870;28;20390;-48
2022/03/23 04:00:17;;;;;;;36.90;16.27;;;;;;;;;;5051877;28;20029;-48
2022/03/23 04:02:44;;;;;;;37.50;16.70;;;;;;;;;;5054072;28;20055;-50
2022/03/23 04:05:11;;;;;;;31.58;15.75;;;;;;;;;;5055288;28;20478;-48
2022/03/23 04:07:38;;;;;;;30.35;15.30;;;;;;;;;;5055569;28;20028;-48
2022/03/23 04:10:06;;;;;;;28.67;14.70;;;;;;;;;;5054729;28;20033;-48
2022/03/23 04:12:33;;;;;;;29.35;14.93;;;;;;;;;;5055555;28;20363;-48
2022/03/23 04:14:59;;;;;;;30.15;15.18;;;;;;;;;;5055115;28;20425;-47
2022/03/23 04:17:26;;;;;;;28.60;13.93;;;;;;;;;;5054844;28;20021;-47
2022/03/23 04:19:53;;;;;;;27.30;13.73;;;;;;;;;;5055559;28;20029;-48
2022/03/23 04:22:21;;;;;;;27.67;13.63;;;;;;;;;;5055251;28;20025;-51
2022/03/23 04:24:49;;;;;;;28.98;13.23;;;;;;;;;;5056550;28;20039;-48
2022/03/23 04:27:15;;;;;;;32.25;14.93;;;;;;;;;;5055859;28;20052;-49
2022/03/23 04:29:43;;;;;;;36.67;14.15;;;;;;;;;;5055257;28;20028;-47
2022/03/23 04:32:10;;;;;;;28.48;12.75;;;;;;;;;;5054552;28;20031;-49
2022/03/23 04:34:37;;;;;;;29.70;12.95;;;;;;;;;;5055254;28;20414;-49
2022/03/23 04:37:04;;;;;;;27.38;13.10;;;;;;;;;;5054503;28;20029;-48
2022/03/23 04:39:31;;;;;;;27.35;11.95;;;;;;;;;;5053963;28;20072;-48
2022/03/23 04:41:58;;;;;;;26.13;12.02;;;;;;;;;;5054342;28;20029;-47
2022/03/23 04:44:25;;;;;;;24.17;12.05;;;;;;;;;;5053706;28;20033;-50
2022/03/23 04:46:52;;;;;;;21.17;11.30;;;;;;;;;;5054374;28;20486;-48
2022/03/23 04:49:19;;;;;;;22.63;11.05;;;;;;;;;;5053815;28;20052;-49
2022/03/23 04:51:46;;;;;;;24.30;11.60;;;;;;;;;;5054183;28;20391;-48
2022/03/23 04:54:13;;;;;;;20.67;11.02;;;;;;;;;;5056534;28;20024;-49
2022/03/23 04:56:40;;;;;;;23.33;10.88;;;;;;;;;;5064219;28;20035;-48
2022/03/23 04:59:07;;;;;;;22.85;11.48;;;;;;;;;;5059787;28;20025;-47
2022/03/23 05:01:34;;;;;;;24.88;10.50;;;;;;;;;;5053780;28;20037;-49
2022/03/23 05:04:01;;;;;;;22.45;10.82;;;;;;;;;;5054600;28;20405;-48
2022/03/23 05:06:28;;;;;;;24.33;10.70;;;;;;;;;;5053788;28;20437;-48
2022/03/23 05:08:55;;;;;;;19.85;10.55;;;;;;;;;;5054481;28;20033;-47
2022/03/23 05:11:23;;;;;;;19.45;10.98;;;;;;;;;;5054436;28;20032;-48
2022/03/23 05:13:50;;;;;;;18.88;10.18;;;;;;;;;;5053183;28;20430;-48
2022/03/23 05:16:18;;;;;;;20.85;10.38;;;;;;;;;;5054134;28;20444;-47
2022/03/23 05:18:45;;;;;;;19.95;9.88;;;;;;;;;;5053679;28;20052;-47
2022/03/23 05:21:13;;;;;;;18.73;9.20;;;;;;;;;;5053876;28;20488;-47
2022/03/23 05:23:40;;;;;;;18.55;9.40;;;;;;;;;;5054144;28;20037;-47
2022/03/23 05:26:07;;;;;;;18.65;9.20;;;;;;;;;;5053565;28;20028;-50
2022/03/23 05:28:34;;;;;;;16.90;8.75;;;;;;;;;;5053968;28;20029;-48
2022/03/23 05:31:01;;;;;;;20.92;9.48;;;;;;;;;;5053441;28;20037;-48
2022/03/23 05:33:28;;;;;;;20.92;8.77;;;;;;;;;;5053906;28;20032;-47
2022/03/23 05:35:55;;;;;;;15.68;8.20;;;;;;;;;;5053389;28;20044;-48
2022/03/23 05:38:22;;;;;;;17.23;8.57;;;;;;;;;;5053480;28;20021;-48
2022/03/23 05:40:49;;;;;;;16.13;8.27;;;;;;;;;;5053648;28;20028;-49
2022/03/23 05:43:16;;;;;;;15.18;8.55;;;;;;;;;;5053261;28;20044;-49
2022/03/23 05:45:43;;;;;;;16.85;8.27;;;;;;;;;;5053278;28;20025;-50
2022/03/23 05:48:10;;;;;;;15.07;8.30;;;;;;;;;;5053245;28;20087;-48
2022/03/23 05:50:37;;;;;;;15.65;8.40;;;;;;;;;;5053404;28;20091;-48
2022/03/23 05:53:04;;;;;;;15.55;8.20;;;;;;;;;;5053017;28;20049;-48
2022/03/23 05:55:31;;;;;;;15.25;8.18;;;;;;;;;;5053021;28;20033;-48
2022/03/23 05:57:59;;;;;;;14.82;8.45;;;;;;;;;;5053111;28;20029;-48
2022/03/23 06:00:26;;;;;;;17.23;8.82;;;;;;;;;;5052535;28;20488;-48
2022/03/23 06:02:53;;;;;;;16.80;8.05;;;;;;;;;;5053117;28;20033;-48
2022/03/23 06:05:20;;;;;;;13.60;8.00;;;;;;;;;;5052933;28;20021;-48
2022/03/23 06:07:47;;;;;;;17.58;8.55;;;;;;;;;;5053180;28;20108;-52
2022/03/23 06:10:14;;;;;;;16.17;7.68;;;;;;;;;;5052764;28;20094;-48
2022/03/23 06:12:41;;;;;;;12.65;7.60;;;;;;;;;;5052961;28;20434;-50
2022/03/23 06:15:10;;;;;;;16.67;7.22;;;;;;;;;;5052177;28;20094;-48
2022/03/23 06:17:37;;;;;;;14.75;7.78;;;;;;;;;;5052963;28;20033;-48
2022/03/23 06:20:05;;;;;;;14.02;7.50;;;;;;;;;;5052214;28;20124;-47
2022/03/23 06:22:32;;;;;;;12.98;6.70;;;;;;;;;;5053209;28;20052;-49
2022/03/23 06:24:59;;;;;;;12.80;7.07;;;;;;;;;;5051703;28;20029;-48
2022/03/23 06:27:26;;;;;;;15.23;7.43;;;;;;;;;;5034785;28;20482;-51
2022/03/23 06:29:53;;;;;;;16.20;7.18;;;;;;;;;;5052903;28;20456;-47
2022/03/23 06:32:21;;;;;;;13.50;6.95;;;;;;;;;;5052221;28;20017;-47
2022/03/23 06:34:48;;;;;;;12.73;6.75;;;;;;;;;;5052135;28;20037;-47
2022/03/23 06:37:15;;;;;;;14.00;7.15;;;;;;;;;;5052620;28;20021;-48
2022/03/23 06:39:42;;;;;;;13.07;6.65;;;;;;;;;;5052118;28;20031;-52
2022/03/23 06:42:09;;;;;;;12.60;7.13;;;;;;;;;;5053946;28;20098;-48
2022/03/23 06:44:38;;;;;;;13.93;6.85;;;;;;;;;;5066974;28;20024;-48
2022/03/23 06:47:05;;;;;;;10.15;6.38;;;;;;;;;;5064547;28;20067;-46
2022/03/23 06:49:32;;;;;;;12.20;6.53;;;;;;;;;;5070226;28;20130;-48
2022/03/23 06:51:59;;;;;;;11.45;6.22;;;;;;;;;;5053617;28;20021;-46
2022/03/23 06:54:26;;;;;;;11.60;6.38;;;;;;;;;;5072226;28;20112;-48
2022/03/23 06:56:54;;;;;;;10.98;6.18;;;;;;;;;;5072125;28;20499;-48
2022/03/23 06:59:21;;;;;;;9.40;6.10;;;;;;;;;;5071626;28;20500;-48
2022/03/23 07:01:48;;;;;;;10.88;5.95;;;;;;;;;;5071772;28;20031;-46
2022/03/23 07:04:15;;;;;;;12.05;6.70;;;;;;;;;;5072142;28;20033;-46
2022/03/23 07:06:42;;;;;;;10.40;5.70;;;;;;;;;;5071548;28;20032;-47
2022/03/23 07:11:55;;;;;;;10.60;6.20;;;;;;;;;;5071954;28;20055;-47
2022/03/23 07:14:21;;;;;;;13.07;6.18;;;;;;;;;;5071974;28;20017;-49
2022/03/23 07:16:48;;;;;;;11.15;6.10;;;;;;;;;;5072017;28;20527;-46
2022/03/23 07:19:16;;;;;;;10.02;5.57;;;;;;;;;;5071487;28;20085;-49
2022/03/23 07:21:43;;;;;;;12.88;6.00;;;;;;;;;;5072037;28;20390;-48
2022/03/23 07:24:11;;;;;;;9.73;5.75;;;;;;;;;;5071555;28;20028;-47
2022/03/23 07:26:38;;;;;;;9.70;5.40;;;;;;;;;;5070850;28;20056;-47
2022/03/23 07:29:05;;;;;;;11.75;5.65;;;;;;;;;;5053366;28;20037;-48
2022/03/23 07:31:32;;;;;;;10.68;5.68;;;;;;;;;;5072266;28;20032;-48
2022/03/23 07:33:59;;;;;;;9.55;5.50;;;;;;;;;;5071425;28;20033;-48
2022/03/23 07:36:26;;;;;;;10.82;6.22;;;;;;;;;;5074088;28;20024;-48
2022/03/23 07:38:54;;;;;;;9.07;5.40;;;;;;;;;;5075609;28;20033;-47
2022/03/23 07:41:21;;;;;;;9.15;5.30;;;;;;;;;;5075491;28;20043;-48
2022/03/23 07:43:49;;;;;;;10.50;5.25;;;;;;;;;;5075272;28;20051;-48
2022/03/23 07:46:16;;;;;;;8.25;4.68;;;;;;;;;;5075874;28;20051;-47
2022/03/23 07:48:43;;;;;;;9.18;5.00;;;;;;;;;;5075225;28;20389;-48
2022/03/23 07:51:10;;;;;;;8.98;5.18;;;;;;;;;;5076071;28;20031;-47
2022/03/23 07:53:37;;;;;;;11.45;5.07;;;;;;;;;;5075373;28;20028;-47
2022/03/23 07:56:04;;;;;;;8.05;5.20;;;;;;;;;;5075544;28;20055;-48
2022/03/23 07:58:31;;;;;;;7.00;4.38;;;;;;;;;;5075344;28;20020;-47
2022/03/23 08:00:58;;;;;;;7.68;4.80;;;;;;;;;;5075351;28;20036;-47
2022/03/23 08:03:25;;;;;;;8.63;4.60;;;;;;;;;;5074817;28;20032;-49
2022/03/23 08:05:52;;;;;;;9.18;4.88;;;;;;;;;;5075704;28;20021;-50
2022/03/23 08:08:19;;;;;;;10.90;5.05;;;;;;;;;;5075210;28;20495;-47
2022/03/23 08:10:45;;;;;;;7.65;4.50;;;;;;;;;;5075023;28;20504;-48
2022/03/23 08:13:13;;;;;;;11.48;5.05;;;;;;;;;;5074434;28;20053;-47
2022/03/23 08:15:40;;;;;;;7.40;4.97;;;;;;;;;;5075024;28;20105;-48
2022/03/23 08:18:07;;;;;;;8.15;4.65;;;;;;;;;;5075398;28;20025;-50
2022/03/23 08:20:37;;;;;;;5.80;4.00;;;;;;;;;;5074298;28;20120;-47
2022/03/23 08:23:08;;;;;;;7.97;4.25;;;;;;;;;;5075472;28;20066;-48
2022/03/23 08:25:41;;;;;;;8.00;4.07;;;;;;;;;;5074642;28;20053;-49
2022/03/23 08:28:09;;;;;;;7.93;4.57;;;;;;;;;;5074773;28;20487;-48
2022/03/23 08:30:36;;;;;;;7.63;4.32;;;;;;;;;;5074636;28;20171;-47
2022/03/23 08:33:05;;;;;;;7.70;3.88;;;;;;;;;;5074292;28;20481;-47
2022/03/23 08:35:32;;;;;;;6.57;4.10;;;;;;;;;;5074641;28;20024;-47
2022/03/23 08:37:59;;;;;;;6.85;3.80;;;;;;;;;;5075073;28;20036;-47
2022/03/23 08:40:27;;;;;;;6.95;4.30;;;;;;;;;;5074836;28;20551;-47
2022/03/23 08:42:55;;;;;;;8.18;4.05;;;;;;;;;;5074706;28;20039;-48
2022/03/23 08:45:22;;;;;;;7.40;4.20;;;;;;;;;;5074263;28;20120;-49
2022/03/23 08:47:50;;;;;;;6.60;3.80;;;;;;;;;;5073103;28;20363;-47
2022/03/23 08:50:17;;;;;;;7.55;3.75;;;;;;;;;;5074625;28;20119;-48
2022/03/23 08:52:44;;;;;;;6.70;4.10;;;;;;;;;;5074608;28;20104;-50
2022/03/23 08:55:19;;;;;;;8.02;4.10;;;;;;;;;;5073867;28;20032;-50
2022/03/23 08:57:46;;;;;;;6.07;3.80;;;;;;;;;;5074726;28;20024;-49
2022/03/23 09:00:13;;;;;;;6.88;3.88;;;;;;;;;;5073409;28;20035;-47
2022/03/23 09:02:40;;;;;;;6.75;4.10;;;;;;;;;;5074441;28;20028;-48
2022/03/23 09:05:10;;;;;;;8.05;4.03;;;;;;;;;;5073992;28;20021;-48
2022/03/23 09:07:38;;;;;;;6.20;2.97;;;;;;;;;;5074316;28;20020;-47
2022/03/23 09:10:06;;;;;;;5.85;3.28;;;;;;;;;;5073596;28;20067;-48
2022/03/23 09:12:33;;;;;;;5.63;3.70;;;;;;;;;;5074155;28;20797;-48
2022/03/23 09:15:00;;;;;;;6.85;3.92;;;;;;;;;;5073892;28;20025;-47
2022/03/23 09:17:27;;;;;;;7.20;3.90;;;;;;;;;;5073286;28;20032;-48
2022/03/23 09:19:55;;;;;;;7.07;3.70;;;;;;;;;;5073968;28;20032;-47
2022/03/23 09:22:22;;;;;;;5.68;3.50;;;;;;;;;;5073489;28;20032;-49
2022/03/23 09:24:49;;;;;;;7.78;3.60;;;;;;;;;;5073861;28;20032;-48
2022/03/23 09:27:16;;;;;;;8.55;3.97;;;;;;;;;;5073147;28;20027;-47
2022/03/23 09:29:44;;;;;;;5.60;3.63;;;;;;;;;;5074036;28;20740;-49
2022/03/23 09:32:12;;;;;;;5.72;3.10;;;;;;;;;;5073591;28;20470;-47
2022/03/23 09:34:39;;;;;;;9.38;3.80;;;;;;;;;;5071575;28;20043;-45
2022/03/23 09:39:52;;;;;;;6.00;3.40;;;;;;;;;;5073443;28;20456;-46
2022/03/23 09:42:21;;;;;;;6.80;3.00;;;;;;;;;;5073141;28;20032;-47
2022/03/23 09:44:48;;;;;;;7.90;3.35;;;;;;;;;;5073123;28;20036;-46
2022/03/23 09:47:16;;;;;;;6.80;3.05;;;;;;;;;;5072734;28;20024;-46
2022/03/23 09:49:43;;;;;;;4.65;2.80;;;;;;;;;;5073231;28;20040;-46
2022/03/23 09:52:10;;;;;;;5.10;2.92;;;;;;;;;;5073334;28;20508;-48
2022/03/23 09:54:37;;;;;;;5.88;3.20;;;;;;;;;;5072849;28;20051;-47
2022/03/23 09:57:06;;;;;;;5.13;3.15;;;;;;;;;;5073308;28;20020;-46
2022/03/23 09:59:33;;;;;;;6.30;3.50;;;;;;;;;;5072356;28;20385;-46
2022/03/23 10:02:03;;;;;;;6.47;3.28;;;;;;;;;;5072994;28;20740;-47
2022/03/23 10:04:56;;;;;;;7.68;2.90;;;;;;;;;;5073100;28;20485;-46
2022/03/23 10:07:32;;;;;;;6.43;3.08;;;;;;;;;;5035317;28;20032;-46
2022/03/23 10:09:59;;;;;;;6.65;3.10;;;;;;;;;;5072458;28;20031;-46
2022/03/23 10:12:44;;;;;;;6.63;2.67;;;;;;;;;;5072817;28;20031;-49
2022/03/23 10:15:14;;;;;;;3.30;2.42;;;;;;;;;;5072569;28;20029;-47
2022/03/23 10:17:59;;;;;;;5.35;2.92;;;;;;;;;;5072824;28;20103;-46
2022/03/23 10:20:26;;;;;;;9.25;2.83;;;;;;;;;;5071968;28;20028;-46
2022/03/23 10:22:54;;;;;;;4.78;2.78;;;;;;;;;;5073120;28;20037;-46
2022/03/23 10:25:27;;;;;;;5.80;2.75;;;;;;;;;;5072580;28;20020;-47
2022/03/23 10:27:54;;;;;;;;;;;;;;;;;;5073102;28;20043;-46
2022/03/23 10:30:32;;;;;;;3.95;2.72;;;;;;;;;;5071771;28;19915;-46
2022/03/23 10:32:59;;;;;;;3.65;2.47;;;;;;;;;;5073030;28;20028;-46
2022/03/23 10:35:35;;;;;;;6.35;3.17;;;;;;;;;;5072226;28;20024;-46
2022/03/23 10:38:10;;;;;;;5.35;2.63;;;;;;;;;;5072447;28;20119;-46
2022/03/23 10:40:37;;;;;;;6.13;2.80;;;;;;;;;;5072576;28;20028;-46
2022/03/23 10:43:04;;;;;;;7.72;2.65;;;;;;;;;;5072363;28;20036;-46
2022/03/23 10:45:32;;;;;;;3.75;2.50;;;;;;;;;;5071893;28;20032;-46
2022/03/23 10:48:08;;;;;;;5.50;2.80;;;;;;;;;;5071432;28;20036;-46
2022/03/23 10:51:31;;;;;;;;;;;;;;;;;;;;;
2022/03/23 10:53:59;;;;;;;4.43;2.72;;;;;;;;;;4967812;28;20057;-48
2022/03/23 10:56:33;;;;;;;3.25;2.50;;;;;;;;;;4971416;28;20109;-46
2022/03/23 10:59:25;;;;;;;4.50;2.50;;;;;;;;;;5038386;28;20037;-46
2022/03/23 11:01:58;;;;;;;4.90;2.57;;;;;;;;;;5068341;28;20048;-46
2022/03/23 11:04:29;;;;;;;3.95;2.65;;;;;;;;;;5072530;28;20769;-46
2022/03/23 11:06:59;;;;;;;5.07;2.80;;;;;;;;;;5071324;28;20044;-47
2022/03/23 11:18:17;;;;;;;7.88;2.65;;;;;;;;;;5072563;28;20117;-47
2022/03/23 11:20:44;;;;;;;9.32;2.88;;;;;;;;;;5070482;28;20052;-48
2022/03/23 11:23:18;;;;;;;7.72;2.88;;;;;;;;;;5071888;28;20143;-47
2022/03/23 11:25:45;;;;;;;5.03;2.70;;;;;;;;;;5071269;28;20766;-47
2022/03/23 11:28:15;;;;;;;7.03;3.03;;;;;;;;;;5071875;28;20078;-44
2022/03/23 11:30:43;;;;;;;5.93;3.20;;;;;;;;;;5065650;28;20056;-54
2022/03/23 11:33:15;;;;;;;5.70;2.58;;;;;;;;;;5070343;28;20067;-45
2022/03/23 11:35:47;;;;;;;6.32;3.00;;;;;;;;;;5070287;28;20064;-47
2022/03/23 11:38:15;;;;;;;7.40;2.72;;;;;;;;;;5070792;28;20040;-46
2022/03/23 11:40:44;;;;;;;6.68;2.63;;;;;;;;;;5069824;28;20040;-46
2022/03/23 11:43:15;;;;;;;8.10;2.63;;;;;;;;;;5071384;28;20047;-45
2022/03/23 11:45:43;;;;;;;7.20;3.17;;;;;;;;;;5070407;28;20032;-48
2022/03/23 11:48:16;;;;;;;5.60;2.95;;;;;;;;;;5070571;28;20032;-47
2022/03/23 11:50:48;;;;;;;5.65;2.80;;;;;;;;;;5070189;28;20044;-47
2022/03/23 11:53:30;;;;;;;7.05;3.00;;;;;;;;;;5070850;28;20036;-49
2022/03/23 11:55:57;;;;;;;7.53;2.70;;;;;;;;;;5070898;28;20020;-44
2022/03/23 11:58:34;;;;;;;6.57;2.80;;;;;;;;;;5069984;28;20055;-47
2022/03/23 12:01:14;;;;;;;6.72;2.75;;;;;;;;;;5070434;28;20226;-45
2022/03/23 12:03:41;;;;;;;4.68;2.90;;;;;;;;;;5071010;28;20044;-47
2022/03/23 12:06:14;;;;;;;5.85;2.60;;;;;;;;;;5070663;28;20067;-48
2022/03/23 12:08:51;;;;;;;4.93;2.83;;;;;;;;;;5069969;28;20482;-48
2022/03/23 12:11:31;;;;;;;6.53;2.78;;;;;;;;;;5070240;28;20449;-49
2022/03/23 12:13:59;;;;;;;6.75;2.50;;;;;;;;;;5070687;28;20039;-46
2022/03/23 12:16:44;;;;;;;8.63;3.00;;;;;;;;;;5071372;28;20562;-47
2022/03/23 12:19:11;;;;;;;5.50;2.50;;;;;;;;;;5070998;28;20039;-47
2022/03/23 12:21:56;;;;;;;9.05;2.72;;;;;;;;;;5071308;28;20029;-48
2022/03/23 12:24:29;;;;;;;5.95;2.65;;;;;;;;;;5074397;28;20494;-47
2022/03/23 12:26:57;;;;;;;7.85;2.80;;;;;;;;;;5074556;28;20048;-47
2022/03/23 12:29:36;;;;;;;5.95;2.80;;;;;;;;;;5074613;28;20032;-47
2022/03/23 12:32:08;;;;;;;5.32;2.78;;;;;;;;;;5074763;28;20032;-48
2022/03/23 12:34:37;;;;;;;5.10;2.60;;;;;;;;;;5074688;28;20024;-46
2022/03/23 12:37:22;;;;;;;9.55;3.10;;;;;;;;;;5074039;28;20036;-49
2022/03/23 12:39:53;;;;;;;8.70;2.55;;;;;;;;;;5074733;28;20028;-49
2022/03/23 12:42:20;;;;;;;5.60;2.50;;;;;;;;;;5074141;28;20103;-46
2022/03/23 12:44:48;;;;;;;8.68;2.83;;;;;;;;;;5074454;28;20025;-49
2022/03/23 12:47:20;;;;;;;6.25;2.47;;;;;;;;;;5055840;28;20134;-48
2022/03/23 12:58:34;;;;;;;7.35;2.58;;;;;;;;;;5074443;28;20785;-47
2022/03/23 13:01:17;;;;;;;4.70;2.63;;;;;;;;;;5074105;28;20124;-47
2022/03/23 13:03:47;;;;;;;5.25;3.17;;;;;;;;;;5073884;28;20032;-46
2022/03/23 13:06:15;;;;;;;8.32;2.72;;;;;;;;;;5074061;28;20032;-47
2022/03/23 13:08:49;;;;;;;7.55;2.95;;;;;;;;;;5055707;28;20028;-49
2022/03/23 13:11:20;;;;;;;8.82;3.40;;;;;;;;;;5073589;28;20048;-47
2022/03/23 13:13:50;;;;;;;8.20;3.53;;;;;;;;;;5069227;28;20119;-45
2022/03/23 13:16:21;;;;;;;6.60;3.15;;;;;;;;;;5067950;28;20094;-44
2022/03/23 13:18:48;;;;;;;7.15;3.40;;;;;;;;;;5073839;28;20038;-44
2022/03/23 13:21:21;;;;;;;6.72;3.60;;;;;;;;;;5073384;28;20033;-44
2022/03/23 13:23:47;;;;;;;;;;;;;;;;;;5074467;28;20473;-43
2022/03/23 13:26:15;;;;;;;7.55;3.70;;;;;;;;;;5072998;28;19919;-46
2022/03/23 13:28:57;;;;;;;8.10;3.80;;;;;;;;;;5074045;28;20028;-43
2022/03/23 13:31:26;;;;;;;10.65;3.97;;;;;;;;;;5073387;28;20036;-44
2022/03/23 13:33:53;;;;;;;10.20;3.45;;;;;;;;;;5073139;28;20029;-44
2022/03/23 13:36:23;;;;;;;8.43;3.92;;;;;;;;;;5073772;28;20073;-47
2022/03/23 13:38:51;;;;;;;9.70;4.13;;;;;;;;;;5072914;28;20106;-44
2022/03/23 13:44:06;;;;;;;12.48;3.90;;;;;;;;;;5073321;28;20063;-43
2022/03/23 13:46:33;;;;;;;8.68;4.10;;;;;;;;;;5072942;28;20024;-48
2022/03/23 13:49:00;;;;;;;10.43;4.47;;;;;;;;;;5068785;28;20474;-42
2022/03/23 13:51:28;;;;;;;19.08;3.45;;;;;;;;;;5072267;28;20478;-45
2022/03/23 13:53:58;;;;;;;9.02;3.45;;;;;;;;;;5073079;28;20064;-46
2022/03/23 13:56:30;;;;;;;9.20;3.65;;;;;;;;;;5070847;28;20029;-49
2022/03/23 13:58:58;;;;;;;8.60;3.47;;;;;;;;;;5074952;28;20028;-47
2022/03/23 14:01:25;;;;;;;11.60;3.33;;;;;;;;;;5091168;28;20052;-47
2022/03/23 14:03:57;;;;;;;11.35;3.90;;;;;;;;;;5091466;28;20032;-45
2022/03/23 14:06:24;;;;;;;9.73;3.50;;;;;;;;;;5090419;28;20043;-44
2022/03/23 14:08:52;;;;;;;16.20;4.30;;;;;;;;;;5091864;28;20032;-44
2022/03/23 14:11:20;;;;;;;9.57;4.43;;;;;;;;;;5072875;28;20024;-46
2022/03/23 14:13:53;;;;;;;11.50;3.80;;;;;;;;;;5091834;28;20058;-40
2022/03/23 14:16:23;;;;;;;11.13;3.60;;;;;;;;;;5090254;28;20024;-43
2022/03/23 14:18:50;;;;;;;14.13;4.22;;;;;;;;;;5092466;28;20062;-42
2022/03/23 14:21:20;;;;;;;10.43;4.15;;;;;;;;;;5091869;28;20032;-41
2022/03/23 14:23:47;;;;;;;11.23;3.72;;;;;;;;;;5091851;28;20035;-44
2022/03/23 14:26:32;;;;;;;18.88;4.18;;;;;;;;;;5090892;28;20036;-50
2022/03/23 14:29:00;;;;;;;17.13;3.90;;;;;;;;;;5073624;28;20032;-45
2022/03/23 14:31:27;;;;;;;14.98;4.20;;;;;;;;;;5090998;28;20115;-48
2022/03/23 14:33:55;;;;;;;14.68;4.63;;;;;;;;;;5092399;28;20032;-48
2022/03/23 14:36:24;;;;;;;10.15;3.65;;;;;;;;;;5091975;28;20426;-45
2022/03/23 14:38:51;;;;;;;17.92;3.67;;;;;;;;;;5089489;28;20036;-46
2022/03/23 14:41:21;;;;;;;12.80;4.20;;;;;;;;;;5091905;28;20524;-52
2022/03/23 14:43:51;;;;;;;17.35;4.22;;;;;;;;;;5091261;28;20044;-47
2022/03/23 14:46:25;;;;;;;17.92;4.30;;;;;;;;;;5091105;28;20024;-50
2022/03/23 14:49:06;;;;;;;20.42;4.88;;;;;;;;;;5072772;28;20028;-45
2022/03/23 14:51:34;;;;;;;17.02;4.38;;;;;;;;;;5090890;28;20024;-48
2022/03/23 14:54:02;;;;;;;12.73;5.13;;;;;;;;;;5090720;28;20032;-45
2022/03/23 14:56:29;;;;;;;18.42;4.72;;;;;;;;;;5091830;28;20121;-46
2022/03/23 14:58:57;;;;;;;21.80;4.65;;;;;;;;;;5090530;28;20039;-46
2022/03/23 15:01:24;;;;;;;19.23;4.30;;;;;;;;;;5091331;28;20035;-46
2022/03/23 15:03:53;;;;;;;13.05;4.97;;;;;;;;;;5091607;28;20059;-47
2022/03/23 15:14:39;;;;;;;17.35;4.75;;;;;;;;;;5091014;28;20047;-44
2022/03/23 15:17:06;;;;;;;14.30;4.20;;;;;;;;;;5090616;28;20393;-52
2022/03/23 15:19:33;;;;;;;13.20;4.25;;;;;;;;;;5091274;28;20027;-50
2022/03/23 15:22:03;;;;;;;17.55;4.25;;;;;;;;;;5090061;28;20031;-46
2022/03/23 15:24:31;;;;;;;25.45;4.72;;;;;;;;;;5091481;28;20040;-44
2022/03/23 15:26:58;;;;;;;22.48;4.70;;;;;;;;;;5090433;28;20039;-45